Time;durP1;ratioP1;P1;durP2;ratioP2;P2;SDS_P1;SDS_P2;PMS_P1;PMS_P2;Temp;Humidity;BMP_temperature;BMP_pressure;BME280_temperature;BME280_humidity;BME280_pressure;Samples;Min_cycle;Max_cycle;Signal;HPM_P1;HPM_P2
2023/07/20 00:01:02;;;;;;;10.18;4.38;;;;;;;;;;6308233;22;20065;-62
2023/07/20 00:03:54;;;;;;;;;;;;;;;;;;6308746;22;20086;-62
2023/07/20 00:06:23;;;;;;;7.50;4.00;;;;;;;;;;6308563;22;19915;-62
2023/07/20 00:08:51;;;;;;;10.18;4.35;;;;;;;;;;6308074;22;20025;-62
2023/07/20 00:11:19;;;;;;;10.10;3.63;;;;;;;;;;6307705;22;20051;-62
2023/07/20 00:13:46;;;;;;;9.75;3.70;;;;;;;;;;6308260;22;20565;-62
2023/07/20 00:16:14;;;;;;;10.02;3.80;;;;;;;;;;6307933;22;20396;-62
2023/07/20 00:18:41;;;;;;;6.95;3.90;;;;;;;;;;6308153;22;20389;-62
2023/07/20 00:21:09;;;;;;;9.48;3.88;;;;;;;;;;6307728;22;20076;-62
2023/07/20 00:23:36;;;;;;;10.23;3.97;;;;;;;;;;6307885;22;20081;-62
2023/07/20 00:26:04;;;;;;;11.95;4.00;;;;;;;;;;6307941;22;20030;-64
2023/07/20 00:28:31;;;;;;;12.75;4.57;;;;;;;;;;6307635;22;20022;-62
2023/07/20 00:31:00;;;;;;;11.63;4.35;;;;;;;;;;6280507;22;20015;-62
2023/07/20 00:33:27;;;;;;;11.90;4.50;;;;;;;;;;6280635;22;20026;-61
2023/07/20 00:35:55;;;;;;;14.48;4.75;;;;;;;;;;6280405;22;20058;-62
2023/07/20 00:38:22;;;;;;;14.55;5.30;;;;;;;;;;6280307;22;20412;-62
2023/07/20 00:40:49;;;;;;;17.25;4.95;;;;;;;;;;6280409;22;20039;-62
2023/07/20 00:43:18;;;;;;;11.15;5.40;;;;;;;;;;6307615;22;20471;-62
2023/07/20 00:45:45;;;;;;;19.02;6.15;;;;;;;;;;6280230;22;20015;-62
2023/07/20 00:48:13;;;;;;;16.25;6.32;;;;;;;;;;6280050;22;20030;-62
2023/07/20 00:50:43;;;;;;;9.95;4.93;;;;;;;;;;6307617;22;20098;-62
2023/07/20 00:53:10;;;;;;;7.13;4.47;;;;;;;;;;6307651;22;20019;-62
2023/07/20 00:55:38;;;;;;;6.95;4.10;;;;;;;;;;6280223;22;20109;-62
2023/07/20 00:58:07;;;;;;;8.43;4.28;;;;;;;;;;6280089;22;20102;-62
2023/07/20 01:00:35;;;;;;;8.60;4.53;;;;;;;;;;6280082;22;20098;-62
2023/07/20 01:03:02;;;;;;;10.70;4.40;;;;;;;;;;6307182;22;20333;-62
2023/07/20 01:05:42;;;;;;;11.93;5.50;;;;;;;;;;6280174;22;20019;-62
2023/07/20 01:08:18;;;;;;;9.35;5.40;;;;;;;;;;6279990;22;20031;-62
2023/07/20 01:10:55;;;;;;;10.10;5.15;;;;;;;;;;6280152;22;20022;-62
2023/07/20 01:13:22;;;;;;;8.55;5.03;;;;;;;;;;6280078;22;20524;-62
2023/07/20 01:16:01;;;;;;;12.98;5.63;;;;;;;;;;6279912;22;20022;-62
2023/07/20 01:18:29;;;;;;;8.50;5.53;;;;;;;;;;6279951;22;20023;-62
2023/07/20 01:21:00;;;;;;;13.18;7.15;;;;;;;;;;6279685;22;20019;-61
2023/07/20 01:23:36;;;;;;;10.10;7.32;;;;;;;;;;6279799;22;20077;-61
2023/07/20 01:26:24;;;;;;;13.23;7.40;;;;;;;;;;6279850;22;20079;-61
2023/07/20 01:28:56;;;;;;;14.80;8.05;;;;;;;;;;6307154;22;20398;-62
2023/07/20 01:31:25;;;;;;;11.32;7.25;;;;;;;;;;6307273;22;20027;-61
2023/07/20 01:33:54;;;;;;;12.85;6.70;;;;;;;;;;6279856;22;20057;-61
2023/07/20 01:36:27;;;;;;;10.10;5.65;;;;;;;;;;6279635;22;20019;-61
2023/07/20 01:38:55;;;;;;;9.35;5.78;;;;;;;;;;6307071;22;20026;-61
2023/07/20 01:41:22;;;;;;;12.20;5.35;;;;;;;;;;6279868;22;20372;-62
2023/07/20 01:43:50;;;;;;;9.80;5.43;;;;;;;;;;6307206;22;20441;-62
2023/07/20 01:46:18;;;;;;;11.10;5.13;;;;;;;;;;6254697;22;20015;-62
2023/07/20 01:48:46;;;;;;;10.45;5.00;;;;;;;;;;6279584;22;20019;-61
2023/07/20 01:51:14;;;;;;;9.07;4.72;;;;;;;;;;6279842;22;20456;-61
2023/07/20 01:53:41;;;;;;;6.40;4.32;;;;;;;;;;6254430;22;20019;-62
2023/07/20 01:56:09;;;;;;;8.20;4.00;;;;;;;;;;6307272;22;20384;-62
2023/07/20 01:58:36;;;;;;;7.32;3.90;;;;;;;;;;6279702;22;20023;-62
2023/07/20 02:01:04;;;;;;;9.05;3.92;;;;;;;;;;6279600;22;20023;-62
2023/07/20 02:03:32;;;;;;;8.68;3.75;;;;;;;;;;6279519;22;20019;-62
2023/07/20 02:05:59;;;;;;;6.53;3.85;;;;;;;;;;6279569;22;20439;-62
2023/07/20 02:08:26;;;;;;;7.63;3.78;;;;;;;;;;6279161;22;20015;-63
2023/07/20 02:10:56;;;;;;;8.80;3.65;;;;;;;;;;6279668;22;20019;-63
2023/07/20 02:13:24;;;;;;;5.55;3.15;;;;;;;;;;6306946;22;20380;-63
2023/07/20 02:15:51;;;;;;;5.47;3.30;;;;;;;;;;6279391;22;20019;-63
2023/07/20 02:18:21;;;;;;;8.70;3.88;;;;;;;;;;6279204;22;20065;-63
2023/07/20 02:20:48;;;;;;;6.82;3.60;;;;;;;;;;6306949;22;20086;-63
2023/07/20 02:23:16;;;;;;;7.15;3.60;;;;;;;;;;6306868;22;20012;-63
2023/07/20 02:25:44;;;;;;;8.68;3.80;;;;;;;;;;6279397;22;20029;-63
2023/07/20 02:28:14;;;;;;;5.57;3.45;;;;;;;;;;6253972;22;20022;-63
2023/07/20 02:30:41;;;;;;;10.65;3.42;;;;;;;;;;6254222;22;20023;-63
2023/07/20 02:33:09;;;;;;;8.90;4.13;;;;;;;;;;6306833;22;20449;-63
2023/07/20 02:35:36;;;;;;;7.70;4.32;;;;;;;;;;6306737;22;20437;-63
2023/07/20 02:38:04;;;;;;;8.98;3.80;;;;;;;;;;6306961;22;20019;-63
2023/07/20 02:40:32;;;;;;;7.53;3.72;;;;;;;;;;6306845;22;20019;-63
2023/07/20 02:43:00;;;;;;;8.25;3.78;;;;;;;;;;6306691;22;20016;-63
2023/07/20 02:45:27;;;;;;;7.38;3.90;;;;;;;;;;6279322;22;20065;-63
2023/07/20 02:47:55;;;;;;;9.82;4.18;;;;;;;;;;6279553;22;20019;-63
2023/07/20 02:50:23;;;;;;;10.77;4.10;;;;;;;;;;6279953;22;20046;-63
2023/07/20 02:52:50;;;;;;;8.98;3.92;;;;;;;;;;6279024;22;20026;-63
2023/07/20 02:55:17;;;;;;;8.95;4.03;;;;;;;;;;6279208;22;20399;-63
2023/07/20 02:57:45;;;;;;;10.13;4.00;;;;;;;;;;6279645;22;20019;-63
2023/07/20 03:00:15;;;;;;;9.57;4.20;;;;;;;;;;6279353;22;20019;-63
2023/07/20 03:02:43;;;;;;;6.85;4.50;;;;;;;;;;6273750;22;20024;-63
2023/07/20 03:05:10;;;;;;;7.28;4.70;;;;;;;;;;6275571;22;20015;-63
2023/07/20 03:07:38;;;;;;;8.90;4.65;;;;;;;;;;6274184;22;20044;-63
2023/07/20 03:10:09;;;;;;;10.00;5.00;;;;;;;;;;6273821;22;20102;-63
2023/07/20 03:12:37;;;;;;;10.98;5.13;;;;;;;;;;6274267;22;20065;-63
2023/07/20 03:15:05;;;;;;;7.10;5.47;;;;;;;;;;6274031;22;20047;-63
2023/07/20 03:17:32;;;;;;;11.07;5.30;;;;;;;;;;6274110;22;20022;-63
2023/07/20 03:20:00;;;;;;;7.93;5.40;;;;;;;;;;6274925;22;20447;-62
2023/07/20 03:22:29;;;;;;;9.90;5.80;;;;;;;;;;6276137;22;20402;-62
2023/07/20 03:24:57;;;;;;;8.45;5.65;;;;;;;;;;6276098;22;20099;-62
2023/07/20 03:27:24;;;;;;;9.25;5.63;;;;;;;;;;6277241;22;20015;-65
2023/07/20 03:29:52;;;;;;;9.27;6.00;;;;;;;;;;6277491;22;20372;-62
2023/07/20 03:32:19;;;;;;;10.43;5.95;;;;;;;;;;6277271;22;20018;-62
2023/07/20 03:34:47;;;;;;;9.63;6.38;;;;;;;;;;6277526;22;20020;-62
2023/07/20 03:37:15;;;;;;;9.75;6.00;;;;;;;;;;6275747;22;20070;-62
2023/07/20 03:39:42;;;;;;;8.88;5.90;;;;;;;;;;6275844;22;20027;-62
2023/07/20 03:42:10;;;;;;;10.60;6.25;;;;;;;;;;6275786;22;20043;-62
2023/07/20 03:44:45;;;;;;;11.50;6.20;;;;;;;;;;6275792;22;20035;-62
2023/07/20 03:47:12;;;;;;;14.45;6.85;;;;;;;;;;6274533;22;20810;-62
2023/07/20 03:49:40;;;;;;;11.77;6.93;;;;;;;;;;6275405;22;20077;-65
2023/07/20 03:52:08;;;;;;;12.90;6.22;;;;;;;;;;6277132;22;20474;-65
2023/07/20 03:54:35;;;;;;;9.90;7.03;;;;;;;;;;6275633;22;20048;-64
2023/07/20 03:57:03;;;;;;;9.00;6.40;;;;;;;;;;6276842;22;20022;-65
2023/07/20 03:59:30;;;;;;;10.98;6.60;;;;;;;;;;6274735;22;20023;-64
2023/07/20 04:01:58;;;;;;;10.52;6.38;;;;;;;;;;6283290;22;20015;-64
2023/07/20 04:04:25;;;;;;;9.68;5.55;;;;;;;;;;6308427;22;20762;-64
2023/07/20 04:06:53;;;;;;;8.07;6.10;;;;;;;;;;6280201;22;20047;-64
2023/07/20 04:09:20;;;;;;;9.48;5.93;;;;;;;;;;6306837;22;20342;-64
2023/07/20 04:11:50;;;;;;;12.75;5.47;;;;;;;;;;6280642;22;20098;-64
2023/07/20 04:14:18;;;;;;;9.60;5.68;;;;;;;;;;6255945;22;20019;-64
2023/07/20 04:16:47;;;;;;;7.63;5.47;;;;;;;;;;6280872;22;20030;-64
2023/07/20 04:19:14;;;;;;;8.18;5.13;;;;;;;;;;6280453;22;20475;-65
2023/07/20 04:21:42;;;;;;;7.50;5.53;;;;;;;;;;6280539;22;20076;-64
2023/07/20 04:24:10;;;;;;;9.82;5.57;;;;;;;;;;6255280;22;20015;-64
2023/07/20 04:26:38;;;;;;;9.23;5.45;;;;;;;;;;6280234;22;20322;-65
2023/07/20 04:29:05;;;;;;;12.23;5.88;;;;;;;;;;6280453;22;20350;-65
2023/07/20 04:31:36;;;;;;;10.68;5.07;;;;;;;;;;6280177;22;20440;-65
2023/07/20 04:34:03;;;;;;;8.27;5.20;;;;;;;;;;6280508;22;20030;-64
2023/07/20 04:36:34;;;;;;;11.15;5.40;;;;;;;;;;6280737;22;20019;-64
2023/07/20 04:39:03;;;;;;;8.23;4.57;;;;;;;;;;6255331;22;20047;-65
2023/07/20 04:41:38;;;;;;;11.70;5.43;;;;;;;;;;6281000;22;20019;-65
2023/07/20 04:44:05;;;;;;;8.27;5.40;;;;;;;;;;6307693;22;20023;-64
2023/07/20 04:46:33;;;;;;;8.30;6.18;;;;;;;;;;6280390;22;20326;-64
2023/07/20 04:49:03;;;;;;;8.57;5.07;;;;;;;;;;6280537;22;20015;-64
2023/07/20 04:51:35;;;;;;;9.75;5.15;;;;;;;;;;6280335;22;20504;-64
2023/07/20 04:54:03;;;;;;;11.05;5.45;;;;;;;;;;6280234;22;20011;-64
2023/07/20 04:56:34;;;;;;;9.18;5.78;;;;;;;;;;6280540;22;20030;-64
2023/07/20 04:59:05;;;;;;;9.20;5.93;;;;;;;;;;6280923;22;20409;-64
2023/07/20 05:01:32;;;;;;;9.23;5.88;;;;;;;;;;6279804;22;20053;-65
2023/07/20 05:04:00;;;;;;;8.50;5.20;;;;;;;;;;6254980;22;20395;-64
2023/07/20 05:06:27;;;;;;;7.38;5.43;;;;;;;;;;6307608;22;20318;-64
2023/07/20 05:08:55;;;;;;;8.82;5.30;;;;;;;;;;6280204;22;20088;-64
2023/07/20 05:11:23;;;;;;;9.77;5.43;;;;;;;;;;6280173;22;20046;-64
2023/07/20 05:13:50;;;;;;;11.02;6.30;;;;;;;;;;6280091;22;20015;-64
2023/07/20 05:16:18;;;;;;;11.55;6.03;;;;;;;;;;6280174;22;20023;-64
2023/07/20 05:18:46;;;;;;;9.70;5.68;;;;;;;;;;6280293;22;20437;-64
2023/07/20 05:21:14;;;;;;;11.75;6.35;;;;;;;;;;6280453;22;20353;-64
2023/07/20 05:23:42;;;;;;;18.55;6.45;;;;;;;;;;6279921;22;20016;-64
2023/07/20 05:26:09;;;;;;;10.50;6.38;;;;;;;;;;6280447;22;20374;-64
2023/07/20 05:28:36;;;;;;;10.35;5.85;;;;;;;;;;6307201;22;20054;-64
2023/07/20 05:31:04;;;;;;;9.45;5.78;;;;;;;;;;6307347;22;20023;-64
2023/07/20 05:33:31;;;;;;;8.32;5.68;;;;;;;;;;6307564;22;20015;-64
2023/07/20 05:35:59;;;;;;;8.40;5.45;;;;;;;;;;6307273;22;20019;-64
2023/07/20 05:38:27;;;;;;;9.25;5.95;;;;;;;;;;6307252;22;20314;-64
2023/07/20 05:41:00;;;;;;;7.75;5.70;;;;;;;;;;6307032;22;20077;-64
2023/07/20 05:43:28;;;;;;;10.27;6.70;;;;;;;;;;6307077;22;20341;-64
2023/07/20 05:45:55;;;;;;;12.07;6.03;;;;;;;;;;6307463;22;20020;-65
2023/07/20 05:48:24;;;;;;;12.98;5.63;;;;;;;;;;6307131;22;20015;-65
2023/07/20 05:50:51;;;;;;;14.15;5.65;;;;;;;;;;6279675;22;20449;-65
2023/07/20 05:53:19;;;;;;;9.63;5.70;;;;;;;;;;6307063;22;20512;-64
2023/07/20 05:55:52;;;;;;;10.35;5.80;;;;;;;;;;6307159;22;20019;-65
2023/07/20 05:58:20;;;;;;;8.93;5.20;;;;;;;;;;6307093;22;20015;-65
2023/07/20 06:00:50;;;;;;;17.42;6.15;;;;;;;;;;6307112;22;20015;-65
2023/07/20 06:03:18;;;;;;;13.52;6.00;;;;;;;;;;6306412;22;20333;-65
2023/07/20 06:05:46;;;;;;;13.95;5.90;;;;;;;;;;6307006;22;20023;-65
2023/07/20 06:08:13;;;;;;;8.95;4.85;;;;;;;;;;6307178;22;20019;-65
2023/07/20 06:10:41;;;;;;;8.38;4.82;;;;;;;;;;6280099;22;20019;-64
2023/07/20 06:13:12;;;;;;;8.93;4.25;;;;;;;;;;6307183;22;20015;-65
2023/07/20 06:15:41;;;;;;;11.20;4.80;;;;;;;;;;6307122;22;20019;-64
2023/07/20 06:18:08;;;;;;;7.45;4.38;;;;;;;;;;6307066;22;20011;-65
2023/07/20 06:20:36;;;;;;;7.40;4.35;;;;;;;;;;6306843;22;20019;-65
2023/07/20 06:23:03;;;;;;;9.30;4.10;;;;;;;;;;6307127;22;20021;-64
2023/07/20 06:25:31;;;;;;;6.20;4.03;;;;;;;;;;6306768;22;20522;-65
2023/07/20 06:27:58;;;;;;;11.13;4.60;;;;;;;;;;6306732;22;20018;-64
2023/07/20 06:30:26;;;;;;;15.82;4.70;;;;;;;;;;6306653;22;20065;-65
2023/07/20 06:32:53;;;;;;;26.95;7.63;;;;;;;;;;6306831;22;20011;-65
2023/07/20 06:35:21;;;;;;;10.00;4.47;;;;;;;;;;6306890;22;20019;-65
2023/07/20 06:37:48;;;;;;;7.80;3.95;;;;;;;;;;6307131;22;20020;-65
2023/07/20 06:40:16;;;;;;;7.60;4.15;;;;;;;;;;6306768;22;20081;-65
2023/07/20 06:42:46;;;;;;;10.13;4.30;;;;;;;;;;6306761;22;20019;-64
2023/07/20 06:45:17;;;;;;;8.63;4.10;;;;;;;;;;6306872;22;20022;-64
2023/07/20 06:47:44;;;;;;;7.20;3.45;;;;;;;;;;6306472;22;20082;-65
2023/07/20 06:50:12;;;;;;;7.93;3.38;;;;;;;;;;6306848;22;20015;-65
2023/07/20 06:52:42;;;;;;;7.93;3.55;;;;;;;;;;6307040;22;20016;-64
2023/07/20 06:55:10;;;;;;;8.38;3.83;;;;;;;;;;6307928;22;20015;-64
2023/07/20 06:57:38;;;;;;;7.82;3.67;;;;;;;;;;6308820;22;20015;-64
2023/07/20 07:00:06;;;;;;;9.32;3.80;;;;;;;;;;6308809;22;20094;-64
2023/07/20 07:02:34;;;;;;;6.40;3.35;;;;;;;;;;6308623;22;20086;-64
2023/07/20 07:05:02;;;;;;;8.25;3.95;;;;;;;;;;6308577;22;20384;-64
2023/07/20 07:07:47;;;;;;;6.45;3.30;;;;;;;;;;6308764;22;20072;-65
2023/07/20 07:10:14;;;;;;;6.95;4.25;;;;;;;;;;6308487;22;20090;-65
2023/07/20 07:12:42;;;;;;;10.73;3.90;;;;;;;;;;6308461;22;20041;-65
2023/07/20 07:15:10;;;;;;;8.25;3.40;;;;;;;;;;6281554;22;20090;-64
2023/07/20 07:17:38;;;;;;;8.50;3.80;;;;;;;;;;6308212;22;20425;-64
2023/07/20 07:20:07;;;;;;;8.57;3.90;;;;;;;;;;6308392;22;20456;-64
2023/07/20 07:22:37;;;;;;;10.35;4.10;;;;;;;;;;6308347;22;20025;-65
2023/07/20 07:25:05;;;;;;;8.98;3.70;;;;;;;;;;6308431;22;20437;-65
2023/07/20 07:27:33;;;;;;;7.07;3.50;;;;;;;;;;6308726;22;20090;-65
2023/07/20 07:30:00;;;;;;;6.85;3.20;;;;;;;;;;6308249;22;20019;-64
2023/07/20 07:32:28;;;;;;;6.20;2.97;;;;;;;;;;6308269;22;20023;-65
2023/07/20 07:34:55;;;;;;;8.15;3.72;;;;;;;;;;6308398;22;20019;-64
2023/07/20 07:37:23;;;;;;;6.55;2.97;;;;;;;;;;6308271;22;20022;-65
2023/07/20 07:39:50;;;;;;;5.60;3.10;;;;;;;;;;6308943;22;20026;-64
2023/07/20 07:42:18;;;;;;;6.05;3.10;;;;;;;;;;6308380;22;20397;-65
2023/07/20 07:44:46;;;;;;;4.68;3.35;;;;;;;;;;6308360;22;20022;-64
2023/07/20 07:47:13;;;;;;;6.57;3.45;;;;;;;;;;6308234;22;20091;-65
2023/07/20 07:49:41;;;;;;;5.25;3.10;;;;;;;;;;6308322;22;20018;-65
2023/07/20 07:52:11;;;;;;;7.82;3.70;;;;;;;;;;6308134;22;20015;-65
2023/07/20 07:54:38;;;;;;;5.65;3.53;;;;;;;;;;6308240;22;20016;-65
2023/07/20 07:57:06;;;;;;;6.38;3.38;;;;;;;;;;6308173;22;20522;-65
2023/07/20 07:59:36;;;;;;;6.78;3.13;;;;;;;;;;6308135;22;20015;-65
2023/07/20 08:02:07;;;;;;;7.60;3.45;;;;;;;;;;6281035;22;20019;-65
2023/07/20 08:04:34;;;;;;;7.32;3.53;;;;;;;;;;6308124;22;20016;-65
2023/07/20 08:07:04;;;;;;;11.75;4.32;;;;;;;;;;6307326;22;20430;-64
2023/07/20 08:09:32;;;;;;;8.73;3.20;;;;;;;;;;6307315;22;20019;-64
2023/07/20 08:12:00;;;;;;;7.47;3.42;;;;;;;;;;6307875;22;20345;-64
2023/07/20 08:14:27;;;;;;;9.25;3.63;;;;;;;;;;6305982;22;20026;-64
2023/07/20 08:16:55;;;;;;;8.52;3.60;;;;;;;;;;6302001;22;20023;-65
2023/07/20 08:19:23;;;;;;;8.70;3.50;;;;;;;;;;6305048;22;20015;-64
2023/07/20 08:21:51;;;;;;;9.32;3.72;;;;;;;;;;6307113;22;20451;-65
2023/07/20 08:24:18;;;;;;;9.43;3.38;;;;;;;;;;6307361;22;20089;-64
2023/07/20 08:26:46;;;;;;;6.25;3.70;;;;;;;;;;6307304;22;20372;-64
2023/07/20 08:29:13;;;;;;;8.20;3.70;;;;;;;;;;6307011;22;20401;-65
2023/07/20 08:31:41;;;;;;;7.40;3.90;;;;;;;;;;6280133;22;20019;-64
2023/07/20 08:34:08;;;;;;;14.30;4.97;;;;;;;;;;6307608;22;20035;-64
2023/07/20 08:36:56;;;;;;;10.10;4.20;;;;;;;;;;6307460;22;20016;-64
2023/07/20 08:39:24;;;;;;;8.50;4.07;;;;;;;;;;6307546;22;20072;-64
2023/07/20 08:41:51;;;;;;;8.07;3.40;;;;;;;;;;6306231;22;20011;-65
2023/07/20 08:44:19;;;;;;;6.25;3.30;;;;;;;;;;6306245;22;20077;-63
2023/07/20 08:46:48;;;;;;;8.02;3.67;;;;;;;;;;6279473;22;20045;-63
2023/07/20 08:49:17;;;;;;;15.70;5.63;;;;;;;;;;6306235;22;20019;-65
2023/07/20 08:51:46;;;;;;;10.23;4.32;;;;;;;;;;6305724;22;20098;-63
2023/07/20 08:54:14;;;;;;;6.00;3.13;;;;;;;;;;6306511;22;20380;-64
2023/07/20 08:56:41;;;;;;;6.80;3.40;;;;;;;;;;6307444;22;20093;-64
2023/07/20 08:59:09;;;;;;;5.97;3.25;;;;;;;;;;6307200;22;20021;-64
2023/07/20 09:01:39;;;;;;;5.47;3.05;;;;;;;;;;6307135;22;20158;-64
2023/07/20 09:04:07;;;;;;;4.57;3.10;;;;;;;;;;6307259;22;20015;-65
2023/07/20 09:06:35;;;;;;;6.43;3.97;;;;;;;;;;6280430;22;20460;-64
2023/07/20 09:09:03;;;;;;;9.38;3.97;;;;;;;;;;6307699;22;20019;-65
2023/07/20 09:11:31;;;;;;;6.45;3.55;;;;;;;;;;6307316;22;20437;-65
2023/07/20 09:14:08;;;;;;;9.93;3.47;;;;;;;;;;6307485;22;20099;-65
2023/07/20 09:16:51;;;;;;;7.50;3.13;;;;;;;;;;6307208;22;20046;-64
2023/07/20 09:19:19;;;;;;;9.10;3.35;;;;;;;;;;6307104;22;20515;-64
2023/07/20 09:21:50;;;;;;;6.57;3.38;;;;;;;;;;6307140;22;20106;-64
2023/07/20 09:24:18;;;;;;;6.43;3.30;;;;;;;;;;6307123;22;20077;-63
2023/07/20 09:26:48;;;;;;;6.82;3.92;;;;;;;;;;6307398;22;20372;-64
2023/07/20 09:29:18;;;;;;;7.13;3.47;;;;;;;;;;6280101;22;20018;-64
2023/07/20 09:32:02;;;;;;;9.18;4.13;;;;;;;;;;6306863;22;20019;-63
2023/07/20 09:34:31;;;;;;;8.63;3.42;;;;;;;;;;6307078;22;20011;-65
2023/07/20 09:37:02;;;;;;;5.40;2.90;;;;;;;;;;6306751;22;20019;-66
2023/07/20 09:39:30;;;;;;;6.30;2.97;;;;;;;;;;6307007;22;20026;-64
2023/07/20 09:42:02;;;;;;;6.57;3.20;;;;;;;;;;6306946;22;20015;-65
2023/07/20 09:44:32;;;;;;;4.72;2.67;;;;;;;;;;6306834;22;20445;-63
2023/07/20 09:47:04;;;;;;;4.78;2.88;;;;;;;;;;6306673;22;20031;-66
2023/07/20 09:49:32;;;;;;;6.50;3.08;;;;;;;;;;6307339;22;20328;-64
2023/07/20 09:52:20;;;;;;;4.68;2.85;;;;;;;;;;6306718;22;20106;-64
2023/07/20 09:54:50;;;;;;;4.63;3.13;;;;;;;;;;6306539;22;20019;-63
2023/07/20 09:57:18;;;;;;;5.65;3.30;;;;;;;;;;6306250;22;20082;-63
2023/07/20 09:59:46;;;;;;;4.30;2.60;;;;;;;;;;6306648;22;20041;-64
2023/07/20 10:02:21;;;;;;;6.55;3.08;;;;;;;;;;6307002;22;20488;-63
2023/07/20 10:04:53;;;;;;;6.03;2.80;;;;;;;;;;6307096;22;20375;-63
2023/07/20 10:07:24;;;;;;;8.73;7.00;;;;;;;;;;6306373;22;20015;-65
2023/07/20 10:09:53;;;;;;;8.68;4.20;;;;;;;;;;6306076;22;20065;-63
2023/07/20 10:12:23;;;;;;;5.65;3.55;;;;;;;;;;6306579;22;20026;-63
2023/07/20 10:15:14;;;;;;;6.25;2.70;;;;;;;;;;6306801;22;20015;-63
2023/07/20 10:17:49;;;;;;;6.55;3.00;;;;;;;;;;6291648;22;20019;-64
2023/07/20 10:20:19;;;;;;;10.95;3.53;;;;;;;;;;6306341;22;20046;-64
2023/07/20 10:22:48;;;;;;;7.07;3.25;;;;;;;;;;6280082;22;20012;-66
2023/07/20 10:25:16;;;;;;;5.82;3.10;;;;;;;;;;6306315;22;20069;-64
2023/07/20 10:27:44;;;;;;;6.47;2.67;;;;;;;;;;6307044;22;20045;-63
2023/07/20 10:30:12;;;;;;;8.23;3.03;;;;;;;;;;6306404;22;20015;-64
2023/07/20 10:32:40;;;;;;;5.20;2.58;;;;;;;;;;6306730;22;20451;-64
2023/07/20 10:35:15;;;;;;;8.35;3.05;;;;;;;;;;6306788;22;20101;-64
2023/07/20 10:37:52;;;;;;;8.48;3.45;;;;;;;;;;6306867;22;20015;-64
2023/07/20 10:40:26;;;;;;;6.32;2.70;;;;;;;;;;6279584;22;20022;-64
2023/07/20 10:43:01;;;;;;;6.45;2.78;;;;;;;;;;6306831;22;20026;-64
2023/07/20 10:45:47;;;;;;;6.45;2.55;;;;;;;;;;6306728;22;20098;-64
2023/07/20 10:48:16;;;;;;;6.63;2.90;;;;;;;;;;6306684;22;20161;-64
2023/07/20 10:50:44;;;;;;;5.85;2.80;;;;;;;;;;6305908;22;20068;-62
2023/07/20 10:53:12;;;;;;;6.20;2.13;;;;;;;;;;6279264;22;20023;-64
2023/07/20 10:55:40;;;;;;;4.90;2.78;;;;;;;;;;6299915;22;20098;-65
2023/07/20 10:58:14;;;;;;;7.57;2.65;;;;;;;;;;6299951;22;20021;-65
2023/07/20 11:00:56;;;;;;;9.80;2.90;;;;;;;;;;6272426;22;20372;-66
2023/07/20 11:03:33;;;;;;;6.30;2.55;;;;;;;;;;6300162;22;20061;-64
2023/07/20 11:06:31;;;;;;;7.78;2.80;;;;;;;;;;6299518;22;20007;-65
2023/07/20 11:09:15;;;;;;;7.93;3.40;;;;;;;;;;6299939;22;20015;-65
2023/07/20 11:11:43;;;;;;;;;;;;;;;;;;6273114;22;20023;-65
2023/07/20 11:14:23;;;;;;;8.45;3.15;;;;;;;;;;6300211;22;19919;-65
2023/07/20 11:16:52;;;;;;;9.57;3.10;;;;;;;;;;6299949;22;20049;-65
2023/07/20 11:19:20;;;;;;;6.50;3.20;;;;;;;;;;6299739;22;20102;-64
2023/07/20 11:21:51;;;;;;;7.63;3.83;;;;;;;;;;6300315;22;20141;-64
2023/07/20 11:24:31;;;;;;;8.70;3.58;;;;;;;;;;6300294;22;20086;-65
2023/07/20 11:26:59;;;;;;;6.28;2.97;;;;;;;;;;6300381;22;20046;-65
2023/07/20 11:29:27;;;;;;;9.75;3.55;;;;;;;;;;6300398;22;20073;-64
2023/07/20 11:32:00;;;;;;;8.00;3.67;;;;;;;;;;6299651;22;20049;-64
2023/07/20 11:34:27;;;;;;;10.48;3.53;;;;;;;;;;6300424;22;20599;-64
2023/07/20 11:36:55;;;;;;;9.65;2.92;;;;;;;;;;6300491;22;20047;-65
2023/07/20 11:39:26;;;;;;;13.15;8.50;;;;;;;;;;6300106;22;20021;-64
2023/07/20 11:41:55;;;;;;;5.72;2.80;;;;;;;;;;6301020;22;20019;-65
2023/07/20 11:44:29;;;;;;;6.38;3.10;;;;;;;;;;6301691;22;20019;-63
2023/07/20 11:47:03;;;;;;;5.97;3.15;;;;;;;;;;6302048;22;20023;-64
2023/07/20 11:49:31;;;;;;;17.97;12.77;;;;;;;;;;6302022;22;20023;-64
2023/07/20 11:52:01;;;;;;;7.93;3.88;;;;;;;;;;6275509;22;20284;-63
2023/07/20 11:54:29;;;;;;;9.45;3.47;;;;;;;;;;6301589;22;20019;-64
2023/07/20 11:56:57;;;;;;;35.53;24.70;;;;;;;;;;6301836;22;20027;-64
2023/07/20 11:59:25;;;;;;;11.57;8.23;;;;;;;;;;6301819;22;20011;-66
2023/07/20 12:01:53;;;;;;;10.85;4.45;;;;;;;;;;6301818;22;20503;-65
2023/07/20 12:04:23;;;;;;;34.15;26.85;;;;;;;;;;6274531;22;20030;-66
2023/07/20 12:06:50;;;;;;;8.38;4.35;;;;;;;;;;6301406;22;20023;-66
2023/07/20 12:09:18;;;;;;;20.13;15.38;;;;;;;;;;6301759;22;20098;-66
2023/07/20 12:11:45;;;;;;;6.63;3.40;;;;;;;;;;6301843;22;20020;-65
2023/07/20 12:14:13;;;;;;;15.90;10.82;;;;;;;;;;6301525;22;20390;-66
2023/07/20 12:16:44;;;;;;;12.95;3.85;;;;;;;;;;6300465;22;20464;-65
2023/07/20 12:19:13;;;;;;;6.05;2.83;;;;;;;;;;6300362;22;20015;-64
2023/07/20 12:21:45;;;;;;;12.63;3.38;;;;;;;;;;6301191;22;20090;-64
2023/07/20 12:24:13;;;;;;;7.13;3.47;;;;;;;;;;6301409;22;20519;-65
2023/07/20 12:26:40;;;;;;;5.82;2.60;;;;;;;;;;6301566;22;20077;-65
2023/07/20 12:29:08;;;;;;;6.55;2.80;;;;;;;;;;6301416;22;20053;-65
2023/07/20 12:31:37;;;;;;;9.63;4.55;;;;;;;;;;6300980;22;20019;-65
2023/07/20 12:34:05;;;;;;;4.70;2.97;;;;;;;;;;6301768;22;20023;-65
2023/07/20 12:36:32;;;;;;;11.70;4.68;;;;;;;;;;6301470;22;20451;-66
2023/07/20 12:39:01;;;;;;;30.77;24.63;;;;;;;;;;6274359;22;20075;-65
2023/07/20 12:41:28;;;;;;;6.95;2.88;;;;;;;;;;6301586;22;20397;-66
2023/07/20 12:43:57;;;;;;;7.95;3.42;;;;;;;;;;6300883;22;20015;-65
2023/07/20 12:46:25;;;;;;;5.63;2.90;;;;;;;;;;6301106;22;20041;-66
2023/07/20 12:48:53;;;;;;;112.82;94.85;;;;;;;;;;6301805;22;20073;-65
2023/07/20 12:51:20;;;;;;;63.78;55.83;;;;;;;;;;6301302;22;20449;-66
2023/07/20 12:53:48;;;;;;;32.17;25.90;;;;;;;;;;6301337;22;20497;-64
2023/07/20 12:56:16;;;;;;;8.38;3.65;;;;;;;;;;6300798;22;20023;-64
2023/07/20 12:58:49;;;;;;;7.78;2.78;;;;;;;;;;6300849;22;20075;-66
2023/07/20 13:01:16;;;;;;;4.68;2.50;;;;;;;;;;6272941;22;20015;-66
2023/07/20 13:03:44;;;;;;;5.63;2.50;;;;;;;;;;6299878;22;20015;-64
2023/07/20 13:06:14;;;;;;;9.23;2.67;;;;;;;;;;6300813;22;20380;-65
2023/07/20 13:08:44;;;;;;;5.22;2.50;;;;;;;;;;6299319;22;20094;-67
2023/07/20 13:11:12;;;;;;;8.38;2.38;;;;;;;;;;6299798;22;20019;-66
2023/07/20 13:13:39;;;;;;;7.10;2.45;;;;;;;;;;6301604;22;20019;-65
2023/07/20 13:16:07;;;;;;;7.40;2.47;;;;;;;;;;6301338;22;20019;-64
2023/07/20 13:18:34;;;;;;;8.35;2.78;;;;;;;;;;6300216;22;20081;-64
2023/07/20 13:21:02;;;;;;;5.45;2.53;;;;;;;;;;6300726;22;20124;-65
2023/07/20 13:23:30;;;;;;;6.53;2.50;;;;;;;;;;6300382;22;20061;-65
2023/07/20 13:25:58;;;;;;;5.38;2.22;;;;;;;;;;6301008;22;20019;-64
2023/07/20 13:28:25;;;;;;;5.80;2.30;;;;;;;;;;6300783;22;20399;-64
2023/07/20 13:30:53;;;;;;;6.32;2.70;;;;;;;;;;6300367;22;20021;-64
2023/07/20 13:33:20;;;;;;;3.92;2.20;;;;;;;;;;6301148;22;20019;-64
2023/07/20 13:35:48;;;;;;;7.75;2.65;;;;;;;;;;6300953;22;20011;-64
2023/07/20 13:38:16;;;;;;;4.15;2.30;;;;;;;;;;6300979;22;20443;-65
2023/07/20 13:40:44;;;;;;;5.07;2.30;;;;;;;;;;6300828;22;20018;-63
2023/07/20 13:43:12;;;;;;;3.95;2.17;;;;;;;;;;6299481;22;20041;-64
2023/07/20 13:45:39;;;;;;;10.00;2.60;;;;;;;;;;6300093;22;20080;-63
2023/07/20 13:48:07;;;;;;;5.53;2.30;;;;;;;;;;6300844;22;20345;-63
2023/07/20 13:50:35;;;;;;;4.07;2.30;;;;;;;;;;6300383;22;20102;-63
2023/07/20 13:53:05;;;;;;;4.13;2.10;;;;;;;;;;6300241;22;20026;-63
2023/07/20 13:55:36;;;;;;;6.25;2.80;;;;;;;;;;6300184;22;20018;-64
2023/07/20 13:58:07;;;;;;;4.80;2.25;;;;;;;;;;6273125;22;20098;-63
2023/07/20 14:00:34;;;;;;;10.18;3.33;;;;;;;;;;6300311;22;20356;-63
2023/07/20 14:03:02;;;;;;;6.68;2.53;;;;;;;;;;6299785;22;20041;-64
2023/07/20 14:05:33;;;;;;;5.18;2.40;;;;;;;;;;6299776;22;20038;-69
2023/07/20 14:08:04;;;;;;;4.72;2.60;;;;;;;;;;6272554;22;20487;-64
2023/07/20 14:10:31;;;;;;;9.95;3.65;;;;;;;;;;6300083;22;20031;-64
2023/07/20 14:12:59;;;;;;;4.15;2.35;;;;;;;;;;6299909;22;20314;-64
2023/07/20 14:15:26;;;;;;;5.00;2.45;;;;;;;;;;6299540;22;20030;-65
2023/07/20 14:17:54;;;;;;;6.47;2.60;;;;;;;;;;6299617;22;20016;-64
2023/07/20 14:20:22;;;;;;;6.00;2.40;;;;;;;;;;6300023;22;20407;-64
2023/07/20 14:22:50;;;;;;;3.90;2.58;;;;;;;;;;6300466;22;20533;-65
2023/07/20 14:25:18;;;;;;;5.80;2.70;;;;;;;;;;6272626;22;20522;-65
2023/07/20 14:27:46;;;;;;;6.40;2.33;;;;;;;;;;6298318;22;20019;-64
2023/07/20 14:30:14;;;;;;;6.97;3.10;;;;;;;;;;6299604;22;20022;-65
2023/07/20 14:32:42;;;;;;;3.95;2.40;;;;;;;;;;6298782;22;20045;-64
2023/07/20 14:35:09;;;;;;;7.63;2.55;;;;;;;;;;6298339;22;20341;-65
2023/07/20 14:37:37;;;;;;;7.00;2.30;;;;;;;;;;6298863;22;20114;-65
2023/07/20 14:40:05;;;;;;;5.60;2.35;;;;;;;;;;6298752;22;20100;-66
2023/07/20 14:42:35;;;;;;;5.43;2.20;;;;;;;;;;6299264;22;20039;-66
2023/07/20 14:45:02;;;;;;;5.10;2.20;;;;;;;;;;6300404;22;20090;-65
2023/07/20 14:47:32;;;;;;;6.97;2.45;;;;;;;;;;6300438;22;20054;-65
2023/07/20 14:50:00;;;;;;;5.60;2.70;;;;;;;;;;6300377;22;20025;-65
2023/07/20 14:52:28;;;;;;;9.32;2.65;;;;;;;;;;6300030;22;20019;-66